Portada
METAR-TAF:

METAR-TAF

Aeroports :

Linden, Nova Jersey, Estats Units d'Amèrica

latitud: 40-37-03N, longitud: 074-14-40W, altitud: 7 m

Observació

L'informe es va fer fa 14 minuts, a les 22:55 UTC
Vent 17 kt del Nord-Oest amb ràfegues de 27 kt
Temperatura 7°C
Humitat 53%
Pressió 1011 hPa
Visibilitat: 16.1 km
Cel clar

METAR: KLDJ 222255Z AUTO 32017G27KT 10SM CLR 07/M02 A2985 RMK AO2 T00691022

Hora: 18:09 (23:09 UTC)


TAF: manca

Observacions i pronòstics meteorològics de més de 4000 aeroports (METAR i TAF).

Les estacions disponibles són els punts grocs i vermells al mapa.

Posi el ratolí al punt desitjat per veure el nom de l'estació.

Feu clic per veure les observacions i els pronòstics meteorològics.

Per canviar el mapa: feu clic els botons verds amb una creu de color negre per apropar; al botó verd amb un guió per allunyar la imatge; o en les fletxes verdes per a mapes adjacents.


METAR-TAF: